createdAt,value
2023-05-10T00:02:20.237Z,100621.31
2023-05-10T00:04:46.585Z,100615.78
2023-05-10T00:07:12.881Z,100608.66
2023-05-10T00:09:39.186Z,100619.16
2023-05-10T00:12:05.710Z,100604.97
2023-05-10T00:14:32.064Z,100603.56
2023-05-10T00:16:58.445Z,100604.13
2023-05-10T00:19:24.771Z,100607.19
2023-05-10T00:21:51.093Z,100601.34
2023-05-10T00:24:17.511Z,100601.72
2023-05-10T00:26:43.816Z,100606.75
2023-05-10T00:29:10.090Z,100600.78
2023-05-10T00:31:36.445Z,100599.94
2023-05-10T00:34:02.757Z,100599.84
2023-05-10T00:36:29.047Z,100591.72
2023-05-10T00:38:55.339Z,100596.34
2023-05-10T00:41:22.736Z,100593.09
2023-05-10T00:43:49.321Z,100590.78
2023-05-10T00:46:15.690Z,100589.56
2023-05-10T00:48:42.474Z,100593.09
2023-05-10T00:51:08.777Z,100594.47
2023-05-10T00:53:35.411Z,100597.13
2023-05-10T00:56:02.287Z,100583.47
2023-05-10T00:58:29.267Z,100592.91
2023-05-10T01:00:56.196Z,100588.63
2023-05-10T01:03:22.500Z,100585.97
2023-05-10T01:05:48.822Z,100588.91
2023-05-10T01:08:15.123Z,100575.81
2023-05-10T01:10:41.577Z,100577.78
2023-05-10T01:13:07.926Z,100576.69
2023-05-10T01:15:34.325Z,100576.94
2023-05-10T01:18:00.722Z,100575.91
2023-05-10T01:20:27.031Z,100576.53
2023-05-10T01:23:05.566Z,100570.53
2023-05-10T01:25:37.900Z,100568.69
2023-05-10T01:28:09.076Z,100573.63
2023-05-10T01:30:50.742Z,100570.34
2023-05-10T01:33:19.106Z,100569.63
2023-05-10T01:35:54.396Z,100570.03
2023-05-10T01:38:27.599Z,100567.09
2023-05-10T01:41:07.877Z,100571.69
2023-05-10T01:43:36.426Z,100570.44
2023-05-10T01:46:06.105Z,100567.59
2023-05-10T01:48:32.463Z,100565.41
2023-05-10T01:50:58.827Z,100572.44
2023-05-10T01:53:25.145Z,100561.22
2023-05-10T01:55:53.367Z,100563.09
2023-05-10T01:58:29.599Z,100559.09
2023-05-10T02:00:56.649Z,100563.53
2023-05-10T02:03:23.690Z,100558.28
2023-05-10T02:05:50.033Z,100559.13
2023-05-10T02:08:16.328Z,100553.84
2023-05-10T02:10:42.629Z,100553.84
2023-05-10T02:13:09.037Z,100550.50
2023-05-10T02:15:35.507Z,100551.97
2023-05-10T02:18:01.936Z,100551.22
2023-05-10T02:20:28.368Z,100557.09
2023-05-10T02:22:55.637Z,100563.09
2023-05-10T02:25:22.270Z,100558.50
2023-05-10T02:27:48.705Z,100562.78
2023-05-10T02:30:15.384Z,100559.31
2023-05-10T02:32:42.102Z,100564.56
2023-05-10T02:35:08.621Z,100564.16
2023-05-10T02:37:35.457Z,100563.34
2023-05-10T02:40:01.743Z,100559.53
2023-05-10T02:42:28.744Z,100564.13
2023-05-10T02:44:55.869Z,100562.03
2023-05-10T02:47:22.234Z,100555.66
2023-05-10T02:49:48.658Z,100558.38
2023-05-10T02:52:17.145Z,100559.94
2023-05-10T02:54:46.924Z,100566.25
2023-05-10T02:57:15.990Z,100558.28
2023-05-10T02:59:43.806Z,100561.63
2023-05-10T03:02:10.459Z,100556.28
2023-05-10T03:04:36.842Z,100552.34
2023-05-10T03:07:03.322Z,100559.19
2023-05-10T03:09:29.757Z,100565.91
2023-05-10T03:12:09.317Z,100557.25
2023-05-10T03:14:38.460Z,100564.13
2023-05-10T03:17:07.100Z,100556.97
2023-05-10T03:19:34.124Z,100547.56
2023-05-10T03:22:01.101Z,100548.56
2023-05-10T03:24:28.385Z,100550.25
2023-05-10T03:26:55.314Z,100548.75
2023-05-10T03:29:21.608Z,100543.50
2023-05-10T03:31:48.019Z,100541.78
2023-05-10T03:34:14.343Z,100549.38
2023-05-10T03:36:40.664Z,100546.88
2023-05-10T03:39:06.992Z,100545.78
2023-05-10T03:41:33.274Z,100547.66
2023-05-10T03:43:59.562Z,100554.00
2023-05-10T03:46:25.968Z,100545.00
2023-05-10T03:48:52.317Z,100548.22
2023-05-10T03:51:18.688Z,100544.16
2023-05-10T03:53:44.989Z,100543.75
2023-05-10T03:56:11.502Z,100552.56
2023-05-10T03:58:37.800Z,100545.53
2023-05-10T04:01:04.078Z,100543.91
2023-05-10T04:03:30.405Z,100542.88
2023-05-10T04:06:01.155Z,100536.75
2023-05-10T04:08:27.517Z,100541.91
2023-05-10T04:10:53.840Z,100536.31
2023-05-10T04:13:20.656Z,100541.59
2023-05-10T04:15:47.069Z,100539.25
2023-05-10T04:18:13.338Z,100548.63
2023-05-10T04:20:39.628Z,100547.25
2023-05-10T04:23:05.924Z,100547.81
2023-05-10T04:25:34.535Z,100541.56
2023-05-10T04:28:00.815Z,100540.81
2023-05-10T04:30:29.443Z,100546.09
2023-05-10T04:32:55.784Z,100543.25
2023-05-10T04:35:22.412Z,100548.13
2023-05-10T04:37:48.768Z,100541.34
2023-05-10T04:40:15.260Z,100546.38
2023-05-10T04:42:42.352Z,100552.16
2023-05-10T04:45:10.383Z,100559.25
2023-05-10T04:47:37.969Z,100558.31
2023-05-10T04:50:04.772Z,100566.56
2023-05-10T04:52:31.114Z,100560.06
2023-05-10T04:54:57.392Z,100565.50
2023-05-10T04:57:23.673Z,100570.38
2023-05-10T04:59:50.649Z,100570.34
2023-05-10T05:02:17.022Z,100574.91
2023-05-10T05:04:43.323Z,100583.50
2023-05-10T05:07:09.604Z,100585.25
2023-05-10T05:09:35.881Z,100591.28
2023-05-10T05:12:02.426Z,100587.72
2023-05-10T05:14:28.758Z,100590.31
2023-05-10T05:16:55.075Z,100586.38
2023-05-10T05:19:21.643Z,100595.91
2023-05-10T05:21:47.945Z,100604.78
2023-05-10T05:24:14.259Z,100601.06
2023-05-10T05:26:40.587Z,100603.16
2023-05-10T05:29:06.876Z,100600.44
2023-05-10T05:31:33.315Z,100601.81
2023-05-10T05:33:59.714Z,100600.22
2023-05-10T05:36:26.046Z,100603.16
2023-05-10T05:38:52.393Z,100602.16
2023-05-10T05:41:18.661Z,100604.78
2023-05-10T05:43:44.958Z,100601.13
2023-05-10T05:46:11.301Z,100610.94
2023-05-10T05:48:37.710Z,100609.25
2023-05-10T05:51:06.531Z,100619.56
2023-05-10T05:53:33.532Z,100611.25
2023-05-10T05:55:59.966Z,100617.13
2023-05-10T05:58:26.338Z,100621.00
2023-05-10T06:00:55.559Z,100623.72
2023-05-10T06:03:22.259Z,100629.38
2023-05-10T06:05:48.683Z,100630.66
2023-05-10T06:08:15.028Z,100627.56
2023-05-10T06:10:41.302Z,100635.84
2023-05-10T06:13:07.632Z,100644.34
2023-05-10T06:15:34.345Z,100645.44
2023-05-10T06:18:00.760Z,100644.00
2023-05-10T06:20:27.143Z,100642.03
2023-05-10T06:22:53.577Z,100652.28
2023-05-10T06:25:19.878Z,100656.34
2023-05-10T06:27:49.783Z,100648.34
2023-05-10T06:30:18.257Z,100652.56
2023-05-10T06:32:46.023Z,100654.44
2023-05-10T06:35:12.334Z,100651.13
2023-05-10T06:37:38.666Z,100655.47
2023-05-10T06:40:05.681Z,100650.38
2023-05-10T06:42:31.972Z,100649.06
2023-05-10T06:44:58.350Z,100659.41
2023-05-10T06:47:24.655Z,100660.25
2023-05-10T06:49:50.967Z,100673.94
2023-05-10T06:52:17.262Z,100665.50
2023-05-10T06:54:43.545Z,100671.56
2023-05-10T06:57:23.399Z,100673.22
2023-05-10T06:59:57.418Z,100684.25
2023-05-10T07:02:23.729Z,100691.13
2023-05-10T07:04:50.120Z,100683.91
2023-05-10T07:07:16.418Z,100692.56
2023-05-10T07:09:43.045Z,100695.25
2023-05-10T07:12:11.125Z,100700.56
2023-05-10T07:14:38.524Z,100703.69
2023-05-10T07:17:04.814Z,100702.44
2023-05-10T07:19:31.118Z,100703.47
2023-05-10T07:21:57.680Z,100706.28
2023-05-10T07:24:24.346Z,100705.66
2023-05-10T07:26:50.872Z,100712.63
2023-05-10T07:29:17.184Z,100723.56
2023-05-10T07:31:43.834Z,100716.63
2023-05-10T07:34:10.273Z,100718.72
2023-05-10T07:36:36.667Z,100722.53
2023-05-10T07:39:03.080Z,100724.44
2023-05-10T07:41:29.385Z,100714.69
2023-05-10T07:43:55.672Z,100722.34
2023-05-10T07:46:22.091Z,100717.59
2023-05-10T07:48:48.483Z,100722.75
2023-05-10T07:51:14.777Z,100718.25
2023-05-10T07:53:41.414Z,100716.06
2023-05-10T07:56:24.209Z,100715.28
2023-05-10T07:58:50.656Z,100717.03
2023-05-10T08:01:17.037Z,100720.91
2023-05-10T08:03:43.463Z,100729.84
2023-05-10T08:06:09.837Z,100732.28
2023-05-10T08:08:36.145Z,100735.28
2023-05-10T08:11:02.657Z,100735.22
2023-05-10T08:13:28.952Z,100741.13
2023-05-10T08:15:55.243Z,100742.13
2023-05-10T08:18:22.314Z,100740.75
2023-05-10T08:20:48.756Z,100751.06
2023-05-10T08:23:15.245Z,100756.38
2023-05-10T08:25:41.536Z,100753.97
2023-05-10T08:28:09.317Z,100757.53
2023-05-10T08:30:36.309Z,100754.75
2023-05-10T08:33:02.634Z,100757.44
2023-05-10T08:35:29.110Z,100756.19
2023-05-10T08:37:55.542Z,100756.19
2023-05-10T08:40:21.862Z,100758.94
2023-05-10T08:42:52.652Z,100754.72
2023-05-10T08:45:19.150Z,100765.16
2023-05-10T08:47:45.708Z,100760.44
2023-05-10T08:50:12.033Z,100764.66
2023-05-10T08:52:39.939Z,100769.88
2023-05-10T08:55:06.279Z,100773.69
2023-05-10T08:57:32.733Z,100778.75
2023-05-10T08:59:59.104Z,100785.38
2023-05-10T09:02:25.470Z,100779.50
2023-05-10T09:04:51.972Z,100786.41
2023-05-10T09:07:18.594Z,100792.38
2023-05-10T09:09:44.946Z,100796.69
2023-05-10T09:12:12.471Z,100800.31
2023-05-10T09:14:38.808Z,100796.78
2023-05-10T09:17:05.330Z,100801.91
2023-05-10T09:19:31.716Z,100804.47
2023-05-10T09:21:58.197Z,100807.66
2023-05-10T09:24:28.044Z,100807.03
2023-05-10T09:26:54.354Z,100808.84
2023-05-10T09:29:20.779Z,100815.81
2023-05-10T09:31:55.587Z,100816.56
2023-05-10T09:34:31.091Z,100815.38
2023-05-10T09:36:58.681Z,100819.84
2023-05-10T09:39:31.874Z,100815.94
2023-05-10T09:41:58.717Z,100826.28
2023-05-10T09:44:26.249Z,100823.88
2023-05-10T09:46:53.751Z,100823.19
2023-05-10T09:49:20.951Z,100820.50
2023-05-10T09:51:47.307Z,100822.78
2023-05-10T09:54:14.905Z,100822.91
2023-05-10T09:56:41.633Z,100826.25
2023-05-10T09:59:08.974Z,100829.72
2023-05-10T10:01:36.178Z,100827.88
2023-05-10T10:04:05.990Z,100824.59
2023-05-10T10:06:38.843Z,100830.34
2023-05-10T10:09:05.793Z,100832.50
2023-05-10T10:11:32.115Z,100830.47
2023-05-10T10:13:58.450Z,100835.66
2023-05-10T10:16:25.415Z,100840.38
2023-05-10T10:18:51.816Z,100848.38
2023-05-10T10:21:18.381Z,100853.69
2023-05-10T10:23:45.179Z,100840.09
2023-05-10T10:26:11.472Z,100848.31
2023-05-10T10:28:42.342Z,100850.41
2023-05-10T10:31:26.851Z,100854.59
2023-05-10T10:34:04.570Z,100856.34
2023-05-10T10:36:31.391Z,100852.38
2023-05-10T10:39:01.909Z,100848.66
2023-05-10T10:41:32.577Z,100860.88
2023-05-10T10:44:18.093Z,100856.81
2023-05-10T10:47:03.328Z,100858.13
2023-05-10T10:49:32.488Z,100858.06
2023-05-10T10:52:22.696Z,100850.94
2023-05-10T10:55:01.968Z,100846.06
2023-05-10T10:57:28.967Z,100851.84
2023-05-10T11:00:15.246Z,100848.13
2023-05-10T11:02:42.492Z,100853.06
2023-05-10T11:05:24.138Z,100843.19
2023-05-10T11:07:54.742Z,100848.28
2023-05-10T11:10:24.812Z,100849.53
2023-05-10T11:13:01.945Z,100855.38
2023-05-10T11:15:38.691Z,100862.91
2023-05-10T11:18:17.956Z,100862.09
2023-05-10T11:20:44.287Z,100866.88
2023-05-10T11:23:13.072Z,100861.59
2023-05-10T11:25:46.190Z,100867.25
2023-05-10T11:28:15.849Z,100866.59
2023-05-10T11:30:42.711Z,100871.16
2023-05-10T11:33:09.529Z,100873.59
2023-05-10T11:35:42.381Z,100867.34
2023-05-10T11:38:10.317Z,100870.16
2023-05-10T11:40:36.843Z,100875.28
2023-05-10T11:43:03.632Z,100875.09
2023-05-10T11:45:30.434Z,100879.81
2023-05-10T11:47:57.757Z,100870.88
2023-05-10T11:50:24.234Z,100878.19
2023-05-10T11:52:54.055Z,100889.56
2023-05-10T11:55:20.510Z,100887.75
2023-05-10T11:57:47.077Z,100887.97
2023-05-10T12:00:16.636Z,100902.13
2023-05-10T12:02:43.298Z,100905.31
2023-05-10T12:05:09.966Z,100906.56
2023-05-10T12:07:36.633Z,100916.59
2023-05-10T12:10:03.881Z,100921.47
2023-05-10T12:12:36.483Z,100921.03
2023-05-10T12:15:04.238Z,100912.78
2023-05-10T12:17:30.579Z,100919.88
2023-05-10T12:20:00.131Z,100924.59
2023-05-10T12:22:26.679Z,100928.63
2023-05-10T12:24:53.105Z,100921.69
2023-05-10T12:27:19.383Z,100924.09
2023-05-10T12:29:45.747Z,100931.22
2023-05-10T12:32:12.520Z,100933.44
2023-05-10T12:34:39.497Z,100929.31
2023-05-10T12:37:05.867Z,100938.81
2023-05-10T12:39:39.347Z,100936.00
2023-05-10T12:42:05.687Z,100938.75
2023-05-10T12:44:32.122Z,100937.63
2023-05-10T12:46:58.387Z,100940.59
2023-05-10T12:49:24.687Z,100946.38
2023-05-10T12:51:50.973Z,100947.56
2023-05-10T12:54:17.291Z,100951.63
2023-05-10T12:56:43.980Z,100962.16
2023-05-10T12:59:10.273Z,100961.22
2023-05-10T13:01:36.699Z,100959.16
2023-05-10T13:04:03.220Z,100957.03
2023-05-10T13:06:29.648Z,100967.03
2023-05-10T13:08:55.961Z,100962.97
2023-05-10T13:11:22.510Z,100968.31
2023-05-10T13:13:48.951Z,100974.13
2023-05-10T13:16:15.314Z,100972.84
2023-05-10T13:18:41.710Z,100965.31
2023-05-10T13:21:08.508Z,100972.75
2023-05-10T13:23:35.435Z,100977.41
2023-05-10T13:26:01.740Z,100970.31
2023-05-10T13:28:28.165Z,100975.25
2023-05-10T13:30:54.457Z,100975.88
2023-05-10T13:33:20.875Z,100982.16
2023-05-10T13:35:47.371Z,100994.03
2023-05-10T13:38:13.840Z,100988.25
2023-05-10T13:40:40.191Z,100999.25
2023-05-10T13:43:06.493Z,100988.66
2023-05-10T13:45:32.786Z,100988.28
2023-05-10T13:47:59.141Z,100994.53
2023-05-10T13:50:25.442Z,100994.00
2023-05-10T13:52:51.743Z,101000.53
2023-05-10T13:55:18.313Z,101003.28
2023-05-10T13:57:44.867Z,101006.91
2023-05-10T14:00:11.444Z,101003.44
2023-05-10T14:02:38.142Z,101007.00
2023-05-10T14:05:04.733Z,101003.69
2023-05-10T14:07:31.660Z,101008.69
2023-05-10T14:09:57.970Z,101005.31
2023-05-10T14:12:24.313Z,100996.72
2023-05-10T14:14:50.847Z,101009.72
2023-05-10T14:17:17.161Z,101010.84
2023-05-10T14:19:43.492Z,101001.25
2023-05-10T14:22:09.826Z,101013.38
2023-05-10T14:24:36.126Z,101025.19
2023-05-10T14:27:02.426Z,101011.41
2023-05-10T14:29:28.752Z,101008.16
2023-05-10T14:31:55.111Z,101009.91
2023-05-10T14:34:21.745Z,101007.81
2023-05-10T14:36:48.080Z,101013.84
2023-05-10T14:39:14.481Z,101009.16
2023-05-10T14:41:45.443Z,101012.06
2023-05-10T14:44:11.785Z,101012.19
2023-05-10T14:46:38.470Z,101011.81
2023-05-10T14:49:04.992Z,101010.09
2023-05-10T14:51:31.287Z,101016.13
2023-05-10T14:53:57.676Z,101008.59
2023-05-10T14:56:24.020Z,101016.34
2023-05-10T14:58:50.652Z,101024.34
2023-05-10T15:01:17.271Z,101024.84
2023-05-10T15:03:43.950Z,101008.63
2023-05-10T15:06:10.955Z,101015.19
2023-05-10T15:08:37.439Z,101018.06
2023-05-10T15:11:04.003Z,101019.78
2023-05-10T15:13:30.436Z,101024.06
2023-05-10T15:15:56.896Z,101021.69
2023-05-10T15:18:26.117Z,101016.63
2023-05-10T15:20:52.445Z,101017.94
2023-05-10T15:23:18.752Z,101027.16
2023-05-10T15:25:45.136Z,101028.31
2023-05-10T15:28:11.453Z,101035.31
2023-05-10T15:30:37.798Z,101036.56
2023-05-10T15:33:04.118Z,101041.97
2023-05-10T15:35:30.504Z,101036.44
2023-05-10T15:37:56.839Z,101048.41
2023-05-10T15:40:23.865Z,101057.28
2023-05-10T15:42:50.161Z,101047.66
2023-05-10T15:45:16.892Z,101053.03
2023-05-10T15:47:43.536Z,101049.91
2023-05-10T15:50:10.177Z,101051.75
2023-05-10T15:52:37.067Z,101049.28
2023-05-10T15:55:04.134Z,101055.63
2023-05-10T15:57:30.475Z,101049.66
2023-05-10T15:59:56.851Z,101065.94
2023-05-10T16:02:23.546Z,101067.28
2023-05-10T16:04:49.975Z,101071.25
2023-05-10T16:07:16.320Z,101066.09
2023-05-10T16:09:42.658Z,101072.69
2023-05-10T16:12:09.003Z,101072.66
2023-05-10T16:14:35.450Z,101083.09
2023-05-10T16:17:03.221Z,101074.91
2023-05-10T16:19:32.108Z,101071.63
2023-05-10T16:21:58.806Z,101076.47
2023-05-10T16:24:25.889Z,101083.47
2023-05-10T16:26:52.300Z,101082.50
2023-05-10T16:29:18.833Z,101083.38
2023-05-10T16:31:45.353Z,101084.28
2023-05-10T16:34:11.819Z,101079.22
2023-05-10T16:36:38.282Z,101081.97
2023-05-10T16:39:04.725Z,101080.81
2023-05-10T16:41:34.550Z,101090.59
2023-05-10T16:44:01.720Z,101097.16
2023-05-10T16:46:28.264Z,101101.88
2023-05-10T16:48:54.655Z,101104.25
2023-05-10T16:51:21.414Z,101110.47
2023-05-10T16:53:47.808Z,101104.47
2023-05-10T16:56:14.176Z,101113.59
2023-05-10T16:58:40.524Z,101116.22
2023-05-10T17:01:07.448Z,101115.97
2023-05-10T17:03:34.322Z,101113.16
2023-05-10T17:06:00.903Z,101112.50
2023-05-10T17:08:27.393Z,101118.22
2023-05-10T17:10:53.847Z,101112.13
2023-05-10T17:13:20.352Z,101117.63
2023-05-10T17:15:47.419Z,101117.75
2023-05-10T17:18:13.902Z,101125.06
2023-05-10T17:20:40.398Z,101138.66
2023-05-10T17:23:06.854Z,101126.03
2023-05-10T17:25:35.284Z,101138.19
2023-05-10T17:28:01.974Z,101144.78
2023-05-10T17:30:31.255Z,101144.13
2023-05-10T17:32:57.630Z,101143.81
2023-05-10T17:35:24.327Z,101153.72
2023-05-10T17:37:51.109Z,101151.63
2023-05-10T17:40:18.162Z,101152.13
2023-05-10T17:42:44.616Z,101153.19
2023-05-10T17:45:11.735Z,101165.28
2023-05-10T17:47:38.530Z,101160.19
2023-05-10T17:50:05.881Z,101161.81
2023-05-10T17:52:33.578Z,101167.09
2023-05-10T17:55:00.158Z,101178.34
2023-05-10T17:57:26.527Z,101171.34
2023-05-10T17:59:52.908Z,101174.31
2023-05-10T18:02:19.398Z,101180.25
2023-05-10T18:04:46.046Z,101180.63
2023-05-10T18:07:12.604Z,101178.19
2023-05-10T18:09:39.255Z,101174.16
2023-05-10T18:12:06.164Z,101177.75
2023-05-10T18:14:40.570Z,101179.94
2023-05-10T18:17:08.039Z,101181.53
2023-05-10T18:19:34.680Z,101182.78
2023-05-10T18:22:01.071Z,101197.44
2023-05-10T18:24:38.344Z,101194.50
2023-05-10T18:27:06.755Z,101199.56
2023-05-10T18:29:33.210Z,101197.41
2023-05-10T18:31:59.784Z,101198.47
2023-05-10T18:34:26.321Z,101203.06
2023-05-10T18:36:52.941Z,101192.53
2023-05-10T18:39:19.431Z,101202.81
2023-05-10T18:41:46.000Z,101203.47
2023-05-10T18:44:12.390Z,101210.28
2023-05-10T18:46:39.103Z,101203.88
2023-05-10T18:49:06.467Z,101205.31
2023-05-10T18:51:33.047Z,101211.84
2023-05-10T18:53:59.465Z,101209.84
2023-05-10T18:56:25.878Z,101207.94
2023-05-10T18:58:52.711Z,101218.28
2023-05-10T19:01:19.206Z,101214.63
2023-05-10T19:03:45.746Z,101224.50
2023-05-10T19:06:12.188Z,101212.72
2023-05-10T19:08:38.827Z,101218.22
2023-05-10T19:11:05.245Z,101221.78
2023-05-10T19:13:31.823Z,101219.03
2023-05-10T19:16:06.141Z,101227.59
2023-05-10T19:18:33.218Z,101231.34
2023-05-10T19:21:03.600Z,101229.31
2023-05-10T19:23:32.468Z,101226.63
2023-05-10T19:26:01.465Z,101224.63
2023-05-10T19:28:27.944Z,101234.88
2023-05-10T19:30:54.397Z,101242.69
2023-05-10T19:33:20.968Z,101245.53
2023-05-10T19:35:49.821Z,101249.03
2023-05-10T19:38:16.258Z,101251.72
2023-05-10T19:40:42.639Z,101242.88
2023-05-10T19:43:09.269Z,101246.13
2023-05-10T19:45:37.191Z,101252.06
2023-05-10T19:48:03.845Z,101253.09
2023-05-10T19:50:30.293Z,101255.50
2023-05-10T19:52:58.385Z,101252.56
2023-05-10T19:55:30.822Z,101254.53
2023-05-10T19:57:57.834Z,101255.09
2023-05-10T20:00:24.900Z,101254.50
2023-05-10T20:02:51.349Z,101258.41
2023-05-10T20:05:18.033Z,101259.56
2023-05-10T20:07:44.761Z,101271.81
2023-05-10T20:10:11.516Z,101266.56
2023-05-10T20:12:37.953Z,101268.34
2023-05-10T20:15:06.857Z,101265.50
2023-05-10T20:17:33.446Z,101267.63
2023-05-10T20:19:59.866Z,101265.19
2023-05-10T20:22:26.348Z,101269.50
2023-05-10T20:24:54.406Z,101268.50
2023-05-10T20:27:22.452Z,101266.78
2023-05-10T20:29:48.975Z,101263.94
2023-05-10T20:32:15.321Z,101270.72
2023-05-10T20:34:41.701Z,101272.88
2023-05-10T20:37:08.130Z,101274.81
2023-05-10T20:39:34.533Z,101269.63
2023-05-10T20:42:00.907Z,101268.28
2023-05-10T20:44:27.293Z,101272.06
2023-05-10T20:46:53.726Z,101269.03
2023-05-10T20:49:20.352Z,101269.63
2023-05-10T20:51:46.775Z,101268.72
2023-05-10T20:54:14.483Z,101267.16
2023-05-10T20:56:40.926Z,101270.63
2023-05-10T20:59:07.317Z,101274.38
2023-05-10T21:01:33.722Z,101271.28
2023-05-10T21:04:00.221Z,101273.97
2023-05-10T21:06:26.600Z,101264.25
2023-05-10T21:08:52.980Z,101278.38
2023-05-10T21:11:19.393Z,101267.19
2023-05-10T21:13:45.780Z,101269.97
2023-05-10T21:16:12.291Z,101263.44
2023-05-10T21:18:38.792Z,101266.94
2023-05-10T21:21:05.199Z,101265.50
2023-05-10T21:23:33.139Z,101268.41
2023-05-10T21:26:02.837Z,101277.53
2023-05-10T21:28:29.222Z,101277.38
2023-05-10T21:30:55.811Z,101280.25
2023-05-10T21:33:22.308Z,101272.88
2023-05-10T21:35:48.862Z,101279.91
2023-05-10T21:38:15.616Z,101287.28
2023-05-10T21:40:42.046Z,101285.13
2023-05-10T21:43:08.448Z,101297.31
2023-05-10T21:45:36.339Z,101297.38
2023-05-10T21:48:02.866Z,101294.75
2023-05-10T21:50:29.313Z,101296.09
2023-05-10T21:52:56.240Z,101293.66
2023-05-10T21:55:22.743Z,101290.38
2023-05-10T21:57:50.120Z,101290.63
2023-05-10T22:00:17.289Z,101286.50
2023-05-10T22:02:43.999Z,101292.72
2023-05-10T22:05:10.583Z,101290.50
2023-05-10T22:07:36.973Z,101291.22
2023-05-10T22:10:03.954Z,101294.31
2023-05-10T22:12:30.384Z,101295.63
2023-05-10T22:15:09.432Z,101303.09
2023-05-10T22:17:41.245Z,101297.25
2023-05-10T22:20:08.543Z,101296.47
2023-05-10T22:22:34.976Z,101298.44
2023-05-10T22:25:01.337Z,101296.91
2023-05-10T22:27:27.750Z,101299.19
2023-05-10T22:29:54.186Z,101304.66
2023-05-10T22:32:20.576Z,101300.47
2023-05-10T22:34:46.987Z,101302.19
2023-05-10T22:37:17.962Z,101296.72
2023-05-10T22:39:47.188Z,101303.66
2023-05-10T22:42:13.569Z,101301.69
2023-05-10T22:44:40.028Z,101310.06
2023-05-10T22:47:07.943Z,101314.78
2023-05-10T22:49:34.496Z,101313.31
2023-05-10T22:52:01.370Z,101308.59
2023-05-10T22:54:27.857Z,101310.03
2023-05-10T22:56:54.419Z,101306.50
2023-05-10T22:59:20.996Z,101314.41
2023-05-10T23:01:48.868Z,101315.50
2023-05-10T23:04:15.791Z,101309.31
2023-05-10T23:06:42.237Z,101308.56
2023-05-10T23:09:08.977Z,101316.97
2023-05-10T23:11:35.388Z,101313.00
2023-05-10T23:14:01.888Z,101315.22
2023-05-10T23:16:28.398Z,101315.97
2023-05-10T23:18:55.247Z,101322.69
2023-05-10T23:21:21.760Z,101319.94
2023-05-10T23:23:48.644Z,101319.97
2023-05-10T23:26:15.075Z,101324.66
2023-05-10T23:28:41.454Z,101325.91
2023-05-10T23:31:07.900Z,101321.44
2023-05-10T23:33:34.317Z,101329.13
2023-05-10T23:36:00.839Z,101319.47
2023-05-10T23:38:27.259Z,101328.13
2023-05-10T23:40:54.386Z,101322.81
2023-05-10T23:43:21.608Z,101323.63
2023-05-10T23:45:57.955Z,101318.00
2023-05-10T23:48:24.404Z,101318.97
2023-05-10T23:50:50.981Z,101323.41
2023-05-10T23:53:17.432Z,101321.75
2023-05-10T23:55:44.054Z,101319.06
2023-05-10T23:58:10.655Z,101322.56
